sensor_id;sensor_type;location;lat;lon;timestamp;pressure;altitude;pressure_sealevel;temperature;humidity
71666;BME280;59503;53.486;10.196;2023-08-20T00:00:28;102079.91;;;17.83;100.00
71666;BME280;59503;53.486;10.196;2023-08-20T00:03:03;102077.50;;;17.78;100.00
71666;BME280;59503;53.486;10.196;2023-08-20T00:05:34;102083.34;;;17.73;100.00
71666;BME280;59503;53.486;10.196;2023-08-20T00:08:00;102082.50;;;17.69;100.00
71666;BME280;59503;53.486;10.196;2023-08-20T00:10:25;102095.88;;;17.67;100.00
71666;BME280;59503;53.486;10.196;2023-08-20T00:12:51;102088.31;;;17.57;100.00
71666;BME280;59503;53.486;10.196;2023-08-20T00:15:16;102102.06;;;17.57;100.00
71666;BME280;59503;53.486;10.196;2023-08-20T00:17:44;102102.28;;;17.45;100.00
71666;BME280;59503;53.486;10.196;2023-08-20T00:20:10;102106.16;;;17.44;100.00
71666;BME280;59503;53.486;10.196;2023-08-20T00:22:38;102112.41;;;17.41;100.00
71666;BME280;59503;53.486;10.196;2023-08-20T00:25:04;102114.34;;;17.37;100.00
71666;BME280;59503;53.486;10.196;2023-08-20T00:27:31;102111.19;;;17.35;100.00
71666;BME280;59503;53.486;10.196;2023-08-20T00:29:56;102107.22;;;17.32;100.00
71666;BME280;59503;53.486;10.196;2023-08-20T00:32:22;102111.84;;;17.25;100.00
71666;BME280;59503;53.486;10.196;2023-08-20T00:34:47;102116.16;;;17.26;100.00
71666;BME280;59503;53.486;10.196;2023-08-20T00:37:13;102117.66;;;17.20;100.00
71666;BME280;59503;53.486;10.196;2023-08-20T00:39:39;102122.25;;;17.12;100.00
71666;BME280;59503;53.486;10.196;2023-08-20T00:42:04;102119.56;;;17.16;100.00
71666;BME280;59503;53.486;10.196;2023-08-20T00:44:30;102120.75;;;17.15;100.00
71666;BME280;59503;53.486;10.196;2023-08-20T00:46:56;102117.91;;;17.08;100.00
71666;BME280;59503;53.486;10.196;2023-08-20T00:49:22;102125.34;;;17.07;100.00
71666;BME280;59503;53.486;10.196;2023-08-20T00:51:48;102125.72;;;17.06;100.00
71666;BME280;59503;53.486;10.196;2023-08-20T00:54:14;102126.41;;;16.99;100.00
71666;BME280;59503;53.486;10.196;2023-08-20T00:56:40;102128.69;;;16.94;100.00
71666;BME280;59503;53.486;10.196;2023-08-20T00:59:05;102129.31;;;16.84;100.00
71666;BME280;59503;53.486;10.196;2023-08-20T01:01:31;102130.88;;;16.81;100.00
71666;BME280;59503;53.486;10.196;2023-08-20T01:03:57;102130.13;;;16.84;100.00
71666;BME280;59503;53.486;10.196;2023-08-20T01:06:46;102133.19;;;16.79;100.00
71666;BME280;59503;53.486;10.196;2023-08-20T01:12:02;102115.84;;;16.75;100.00
71666;BME280;59503;53.486;10.196;2023-08-20T01:14:28;102119.28;;;16.69;100.00
71666;BME280;59503;53.486;10.196;2023-08-20T01:16:54;102121.84;;;16.58;100.00
71666;BME280;59503;53.486;10.196;2023-08-20T01:19:20;102119.78;;;16.52;100.00
71666;BME280;59503;53.486;10.196;2023-08-20T01:22:05;102109.84;;;16.44;100.00
71666;BME280;59503;53.486;10.196;2023-08-20T01:27:19;102111.88;;;16.24;100.00
71666;BME280;59503;53.486;10.196;2023-08-20T01:29:49;102122.34;;;16.18;100.00
71666;BME280;59503;53.486;10.196;2023-08-20T01:32:15;102132.06;;;16.12;100.00
71666;BME280;59503;53.486;10.196;2023-08-20T01:34:41;102130.00;;;16.06;100.00
71666;BME280;59503;53.486;10.196;2023-08-20T01:37:07;102128.75;;;16.03;100.00
71666;BME280;59503;53.486;10.196;2023-08-20T01:39:33;102128.63;;;15.96;100.00
71666;BME280;59503;53.486;10.196;2023-08-20T01:41:58;102121.00;;;15.86;100.00
71666;BME280;59503;53.486;10.196;2023-08-20T01:44:24;102134.41;;;15.91;100.00
71666;BME280;59503;53.486;10.196;2023-08-20T01:46:49;102132.84;;;15.90;100.00
71666;BME280;59503;53.486;10.196;2023-08-20T01:49:15;102125.28;;;15.84;100.00
71666;BME280;59503;53.486;10.196;2023-08-20T01:51:40;102129.53;;;15.81;100.00
71666;BME280;59503;53.486;10.196;2023-08-20T01:54:06;102125.19;;;15.80;100.00
71666;BME280;59503;53.486;10.196;2023-08-20T01:56:32;102123.31;;;15.84;100.00
71666;BME280;59503;53.486;10.196;2023-08-20T01:58:57;102117.75;;;15.81;100.00
71666;BME280;59503;53.486;10.196;2023-08-20T02:01:23;102122.75;;;15.75;100.00
71666;BME280;59503;53.486;10.196;2023-08-20T02:03:48;102119.44;;;15.66;100.00
71666;BME280;59503;53.486;10.196;2023-08-20T02:06:14;102116.91;;;15.58;100.00
71666;BME280;59503;53.486;10.196;2023-08-20T02:08:39;102121.19;;;15.55;100.00
71666;BME280;59503;53.486;10.196;2023-08-20T02:11:05;102126.69;;;15.55;100.00
71666;BME280;59503;53.486;10.196;2023-08-20T02:13:31;102127.41;;;15.52;100.00
71666;BME280;59503;53.486;10.196;2023-08-20T02:16:04;102132.88;;;15.52;100.00
71666;BME280;59503;53.486;10.196;2023-08-20T02:18:30;102128.09;;;15.49;100.00
71666;BME280;59503;53.486;10.196;2023-08-20T02:20:56;102131.84;;;15.41;100.00
71666;BME280;59503;53.486;10.196;2023-08-20T02:23:22;102128.09;;;15.30;100.00
71666;BME280;59503;53.486;10.196;2023-08-20T02:25:48;102135.44;;;15.26;100.00
71666;BME280;59503;53.486;10.196;2023-08-20T02:28:13;102133.03;;;15.25;100.00
71666;BME280;59503;53.486;10.196;2023-08-20T02:30:41;102131.19;;;15.29;100.00
71666;BME280;59503;53.486;10.196;2023-08-20T02:33:06;102137.28;;;15.22;100.00
71666;BME280;59503;53.486;10.196;2023-08-20T02:35:32;102145.09;;;15.20;100.00
71666;BME280;59503;53.486;10.196;2023-08-20T02:37:57;102137.16;;;15.15;100.00
71666;BME280;59503;53.486;10.196;2023-08-20T02:40:23;102129.94;;;15.26;100.00
71666;BME280;59503;53.486;10.196;2023-08-20T02:42:48;102134.13;;;15.20;100.00
71666;BME280;59503;53.486;10.196;2023-08-20T02:45:14;102121.09;;;15.14;100.00
71666;BME280;59503;53.486;10.196;2023-08-20T02:47:39;102117.47;;;15.10;100.00
71666;BME280;59503;53.486;10.196;2023-08-20T02:50:05;102125.16;;;15.04;100.00
71666;BME280;59503;53.486;10.196;2023-08-20T02:52:30;102123.16;;;15.01;100.00
71666;BME280;59503;53.486;10.196;2023-08-20T02:54:56;102117.22;;;14.99;100.00
71666;BME280;59503;53.486;10.196;2023-08-20T02:57:21;102122.97;;;14.94;100.00
71666;BME280;59503;53.486;10.196;2023-08-20T02:59:47;102124.06;;;14.89;100.00
71666;BME280;59503;53.486;10.196;2023-08-20T03:02:12;102124.78;;;14.86;100.00
71666;BME280;59503;53.486;10.196;2023-08-20T03:04:38;102124.78;;;14.86;100.00
71666;BME280;59503;53.486;10.196;2023-08-20T03:07:03;102124.88;;;14.90;100.00
71666;BME280;59503;53.486;10.196;2023-08-20T03:09:29;102131.84;;;14.87;100.00
71666;BME280;59503;53.486;10.196;2023-08-20T03:11:55;102125.47;;;14.83;100.00
71666;BME280;59503;53.486;10.196;2023-08-20T03:14:20;102140.03;;;14.87;100.00
71666;BME280;59503;53.486;10.196;2023-08-20T03:16:46;102138.97;;;14.92;100.00
71666;BME280;59503;53.486;10.196;2023-08-20T03:19:14;102125.28;;;14.92;100.00
71666;BME280;59503;53.486;10.196;2023-08-20T03:21:40;102140.72;;;15.00;100.00
71666;BME280;59503;53.486;10.196;2023-08-20T03:24:06;102135.34;;;15.04;100.00
71666;BME280;59503;53.486;10.196;2023-08-20T03:26:32;102144.50;;;15.11;100.00
71666;BME280;59503;53.486;10.196;2023-08-20T03:28:57;102146.22;;;15.19;100.00
71666;BME280;59503;53.486;10.196;2023-08-20T03:31:24;102144.38;;;15.23;100.00
71666;BME280;59503;53.486;10.196;2023-08-20T03:33:49;102136.59;;;15.25;100.00
71666;BME280;59503;53.486;10.196;2023-08-20T03:36:15;102145.66;;;15.29;100.00
71666;BME280;59503;53.486;10.196;2023-08-20T03:38:41;102151.22;;;15.33;100.00
71666;BME280;59503;53.486;10.196;2023-08-20T03:41:06;102154.22;;;15.43;100.00
71666;BME280;59503;53.486;10.196;2023-08-20T03:43:32;102150.31;;;15.44;100.00
71666;BME280;59503;53.486;10.196;2023-08-20T03:45:57;102166.84;;;15.48;100.00
71666;BME280;59503;53.486;10.196;2023-08-20T03:48:22;102166.47;;;15.49;100.00
71666;BME280;59503;53.486;10.196;2023-08-20T03:50:48;102165.78;;;15.52;100.00
71666;BME280;59503;53.486;10.196;2023-08-20T03:53:13;102175.28;;;15.58;100.00
71666;BME280;59503;53.486;10.196;2023-08-20T03:55:39;102173.41;;;15.62;100.00
71666;BME280;59503;53.486;10.196;2023-08-20T03:58:04;102174.19;;;15.63;100.00
71666;BME280;59503;53.486;10.196;2023-08-20T04:00:30;102176.94;;;15.63;100.00
71666;BME280;59503;53.486;10.196;2023-08-20T04:02:55;102176.84;;;15.59;100.00
71666;BME280;59503;53.486;10.196;2023-08-20T04:05:21;102180.03;;;15.61;100.00
71666;BME280;59503;53.486;10.196;2023-08-20T04:07:46;102184.38;;;15.62;100.00
71666;BME280;59503;53.486;10.196;2023-08-20T04:10:12;102190.28;;;15.64;100.00
71666;BME280;59503;53.486;10.196;2023-08-20T04:12:37;102190.56;;;15.59;100.00
71666;BME280;59503;53.486;10.196;2023-08-20T04:15:03;102191.88;;;15.65;100.00
71666;BME280;59503;53.486;10.196;2023-08-20T04:17:28;102190.56;;;15.59;100.00
71666;BME280;59503;53.486;10.196;2023-08-20T04:19:54;102197.72;;;15.64;100.00
71666;BME280;59503;53.486;10.196;2023-08-20T04:22:19;102186.41;;;15.65;100.00
71666;BME280;59503;53.486;10.196;2023-08-20T04:24:45;102193.91;;;15.68;100.00
71666;BME280;59503;53.486;10.196;2023-08-20T04:27:10;102194.34;;;15.70;100.00
71666;BME280;59503;53.486;10.196;2023-08-20T04:29:36;102192.38;;;15.71;100.00
71666;BME280;59503;53.486;10.196;2023-08-20T04:32:01;102178.94;;;15.66;100.00
71666;BME280;59503;53.486;10.196;2023-08-20T04:34:27;102190.88;;;15.73;100.00
71666;BME280;59503;53.486;10.196;2023-08-20T04:36:52;102194.47;;;15.77;100.00
71666;BME280;59503;53.486;10.196;2023-08-20T04:39:18;102198.38;;;15.76;100.00
71666;BME280;59503;53.486;10.196;2023-08-20T04:41:44;102201.97;;;15.80;100.00
71666;BME280;59503;53.486;10.196;2023-08-20T04:44:09;102199.25;;;15.80;100.00
71666;BME280;59503;53.486;10.196;2023-08-20T04:46:35;102203.56;;;15.81;100.00
71666;BME280;59503;53.486;10.196;2023-08-20T04:49:00;102200.75;;;15.78;100.00
71666;BME280;59503;53.486;10.196;2023-08-20T04:51:26;102200.81;;;15.81;100.00
71666;BME280;59503;53.486;10.196;2023-08-20T04:53:51;102198.81;;;15.78;100.00
71666;BME280;59503;53.486;10.196;2023-08-20T04:56:16;102198.06;;;15.81;100.00
71666;BME280;59503;53.486;10.196;2023-08-20T04:58:42;102198.72;;;15.75;100.00
71666;BME280;59503;53.486;10.196;2023-08-20T05:01:07;102213.69;;;15.77;100.00
71666;BME280;59503;53.486;10.196;2023-08-20T05:03:34;102201.84;;;15.73;100.00
71666;BME280;59503;53.486;10.196;2023-08-20T05:05:59;102211.41;;;15.83;100.00
71666;BME280;59503;53.486;10.196;2023-08-20T05:08:25;102210.22;;;15.80;100.00
71666;BME280;59503;53.486;10.196;2023-08-20T05:10:50;102211.41;;;15.83;100.00
71666;BME280;59503;53.486;10.196;2023-08-20T05:13:17;102201.69;;;15.85;100.00
71666;BME280;59503;53.486;10.196;2023-08-20T05:15:42;102198.94;;;15.85;100.00
71666;BME280;59503;53.486;10.196;2023-08-20T05:18:08;102198.94;;;15.85;100.00
71666;BME280;59503;53.486;10.196;2023-08-20T05:20:33;102200.66;;;15.74;100.00
71666;BME280;59503;53.486;10.196;2023-08-20T05:22:59;102210.50;;;15.75;100.00
71666;BME280;59503;53.486;10.196;2023-08-20T05:25:24;102214.53;;;15.81;100.00
71666;BME280;59503;53.486;10.196;2023-08-20T05:27:50;102215.41;;;15.85;100.00
71666;BME280;59503;53.486;10.196;2023-08-20T05:30:15;102222.03;;;15.84;100.00
71666;BME280;59503;53.486;10.196;2023-08-20T05:32:41;102217.41;;;15.88;100.00
71666;BME280;59503;53.486;10.196;2023-08-20T05:35:07;102213.16;;;15.91;100.00
71666;BME280;59503;53.486;10.196;2023-08-20T05:37:32;102207.72;;;15.94;100.00
71666;BME280;59503;53.486;10.196;2023-08-20T05:39:57;102185.00;;;15.94;100.00
71666;BME280;59503;53.486;10.196;2023-08-20T05:42:23;102178.28;;;15.91;100.00
71666;BME280;59503;53.486;10.196;2023-08-20T05:44:48;102165.75;;;15.90;100.00
71666;BME280;59503;53.486;10.196;2023-08-20T05:47:14;102161.84;;;15.91;100.00
71666;BME280;59503;53.486;10.196;2023-08-20T05:49:39;102149.84;;;15.99;100.00
71666;BME280;59503;53.486;10.196;2023-08-20T05:52:05;102163.69;;;16.06;100.00
71666;BME280;59503;53.486;10.196;2023-08-20T05:54:30;102160.28;;;16.13;100.00
71666;BME280;59503;53.486;10.196;2023-08-20T05:56:57;102172.19;;;16.21;100.00
71666;BME280;59503;53.486;10.196;2023-08-20T05:59:24;102186.47;;;16.30;100.00
71666;BME280;59503;53.486;10.196;2023-08-20T06:01:49;102184.94;;;16.32;100.00
71666;BME280;59503;53.486;10.196;2023-08-20T06:04:14;102197.31;;;16.45;100.00
71666;BME280;59503;53.486;10.196;2023-08-20T06:06:40;102192.34;;;16.51;100.00
71666;BME280;59503;53.486;10.196;2023-08-20T06:09:05;102197.16;;;16.57;100.00
71666;BME280;59503;53.486;10.196;2023-08-20T06:11:31;102204.66;;;16.60;100.00
71666;BME280;59503;53.486;10.196;2023-08-20T06:13:56;102212.97;;;16.64;100.00
71666;BME280;59503;53.486;10.196;2023-08-20T06:16:22;102211.44;;;16.66;100.00
71666;BME280;59503;53.486;10.196;2023-08-20T06:18:47;102207.22;;;16.72;100.00
71666;BME280;59503;53.486;10.196;2023-08-20T06:21:13;102195.53;;;16.79;100.00
71666;BME280;59503;53.486;10.196;2023-08-20T06:23:38;102200.09;;;16.94;100.00
71666;BME280;59503;53.486;10.196;2023-08-20T06:26:04;102194.59;;;16.94;100.00
71666;BME280;59503;53.486;10.196;2023-08-20T06:28:32;102201.66;;;16.91;100.00
71666;BME280;59503;53.486;10.196;2023-08-20T06:30:57;102190.78;;;16.98;100.00
71666;BME280;59503;53.486;10.196;2023-08-20T06:33:23;102196.28;;;17.02;100.00
71666;BME280;59503;53.486;10.196;2023-08-20T06:35:48;102204.69;;;17.12;100.00
71666;BME280;59503;53.486;10.196;2023-08-20T06:38:14;102213.84;;;17.20;100.00
71666;BME280;59503;53.486;10.196;2023-08-20T06:40:39;102210.91;;;17.35;100.00
71666;BME280;59503;53.486;10.196;2023-08-20T06:43:05;102216.13;;;17.44;100.00
71666;BME280;59503;53.486;10.196;2023-08-20T06:45:30;102212.25;;;17.45;100.00
71666;BME280;59503;53.486;10.196;2023-08-20T06:47:56;102213.56;;;17.55;100.00
71666;BME280;59503;53.486;10.196;2023-08-20T06:50:22;102217.13;;;17.55;100.00
71666;BME280;59503;53.486;10.196;2023-08-20T06:52:48;102219.25;;;17.69;100.00
71666;BME280;59503;53.486;10.196;2023-08-20T06:55:13;102227.22;;;17.77;100.00
71666;BME280;59503;53.486;10.196;2023-08-20T06:57:38;102224.53;;;17.84;100.00
71666;BME280;59503;53.486;10.196;2023-08-20T07:00:04;102234.50;;;17.92;100.00
71666;BME280;59503;53.486;10.196;2023-08-20T07:02:30;102227.06;;;17.96;100.00
71666;BME280;59503;53.486;10.196;2023-08-20T07:04:56;102227.84;;;17.97;100.00
71666;BME280;59503;53.486;10.196;2023-08-20T07:07:21;102230.88;;;18.21;100.00
71666;BME280;59503;53.486;10.196;2023-08-20T07:09:47;102219.56;;;18.30;100.00
71666;BME280;59503;53.486;10.196;2023-08-20T07:12:13;102231.88;;;18.39;100.00
71666;BME280;59503;53.486;10.196;2023-08-20T07:14:38;102221.56;;;18.36;100.00
71666;BME280;59503;53.486;10.196;2023-08-20T07:17:03;102218.50;;;18.41;100.00
71666;BME280;59503;53.486;10.196;2023-08-20T07:19:30;102228.03;;;18.47;100.00
71666;BME280;59503;53.486;10.196;2023-08-20T07:21:55;102230.38;;;18.45;100.00
71666;BME280;59503;53.486;10.196;2023-08-20T07:24:21;102230.44;;;18.52;100.00
71666;BME280;59503;53.486;10.196;2023-08-20T07:26:53;102240.00;;;18.66;100.00
71666;BME280;59503;53.486;10.196;2023-08-20T07:29:25;102230.19;;;18.72;100.00
71666;BME280;59503;53.486;10.196;2023-08-20T07:31:50;102232.94;;;18.72;100.00
71666;BME280;59503;53.486;10.196;2023-08-20T07:34:15;102235.78;;;18.79;100.00
71666;BME280;59503;53.486;10.196;2023-08-20T07:36:41;102246.41;;;18.80;100.00
71666;BME280;59503;53.486;10.196;2023-08-20T07:39:06;102244.94;;;18.90;100.00
71666;BME280;59503;53.486;10.196;2023-08-20T07:41:33;102248.59;;;19.08;100.00
71666;BME280;59503;53.486;10.196;2023-08-20T07:43:59;102246.75;;;19.26;100.00
71666;BME280;59503;53.486;10.196;2023-08-20T07:46:24;102238.66;;;19.47;100.00
71666;BME280;59503;53.486;10.196;2023-08-20T07:48:50;102250.19;;;19.70;100.00
71666;BME280;59503;53.486;10.196;2023-08-20T07:51:15;102251.84;;;19.85;100.00
71666;BME280;59503;53.486;10.196;2023-08-20T07:53:41;102250.72;;;20.04;100.00
71666;BME280;59503;53.486;10.196;2023-08-20T07:56:06;102249.53;;;20.01;100.00
71666;BME280;59503;53.486;10.196;2023-08-20T07:58:32;102255.03;;;19.94;100.00
71666;BME280;59503;53.486;10.196;2023-08-20T08:00:57;102249.59;;;20.15;100.00
71666;BME280;59503;53.486;10.196;2023-08-20T08:03:24;102249.69;;;20.61;100.00
71666;BME280;59503;53.486;10.196;2023-08-20T08:05:50;102254.47;;;21.03;100.00
71666;BME280;59503;53.486;10.196;2023-08-20T08:08:17;102256.34;;;21.51;100.00
71666;BME280;59503;53.486;10.196;2023-08-20T08:10:43;102252.78;;;21.58;100.00
71666;BME280;59503;53.486;10.196;2023-08-20T08:13:11;102248.94;;;22.28;100.00
71666;BME280;59503;53.486;10.196;2023-08-20T08:15:37;102252.66;;;22.65;100.00
71666;BME280;59503;53.486;10.196;2023-08-20T08:18:02;102257.47;;;23.05;100.00
71666;BME280;59503;53.486;10.196;2023-08-20T08:20:28;102261.28;;;23.22;100.00
71666;BME280;59503;53.486;10.196;2023-08-20T08:22:54;102252.84;;;23.70;100.00
71666;BME280;59503;53.486;10.196;2023-08-20T08:25:19;102252.22;;;23.59;100.00
71666;BME280;59503;53.486;10.196;2023-08-20T08:27:44;102260.59;;;24.19;100.00
71666;BME280;59503;53.486;10.196;2023-08-20T08:30:11;102260.31;;;24.63;100.00
71666;BME280;59503;53.486;10.196;2023-08-20T08:32:36;102262.59;;;24.72;100.00
71666;BME280;59503;53.486;10.196;2023-08-20T08:35:01;102267.16;;;25.08;100.00
71666;BME280;59503;53.486;10.196;2023-08-20T08:37:27;102264.59;;;25.17;100.00
71666;BME280;59503;53.486;10.196;2023-08-20T08:39:52;102268.97;;;25.61;100.00
71666;BME280;59503;53.486;10.196;2023-08-20T08:42:20;102258.88;;;25.87;100.00
71666;BME280;59503;53.486;10.196;2023-08-20T08:44:48;102268.38;;;25.89;100.00
71666;BME280;59503;53.486;10.196;2023-08-20T08:47:14;102258.59;;;26.20;96.69
71666;BME280;59503;53.486;10.196;2023-08-20T08:49:40;102264.06;;;26.24;100.00
71666;BME280;59503;53.486;10.196;2023-08-20T08:52:05;102266.47;;;25.66;97.41
71666;BME280;59503;53.486;10.196;2023-08-20T08:54:32;102270.38;;;25.69;93.73
71666;BME280;59503;53.486;10.196;2023-08-20T08:56:58;102260.44;;;25.88;94.32
71666;BME280;59503;53.486;10.196;2023-08-20T08:59:24;102268.25;;;25.77;94.40
71666;BME280;59503;53.486;10.196;2023-08-20T09:01:49;102268.78;;;26.27;91.31
71666;BME280;59503;53.486;10.196;2023-08-20T09:04:14;102266.84;;;26.91;91.57
71666;BME280;59503;53.486;10.196;2023-08-20T09:10:20;102265.19;;;27.55;82.78
71666;BME280;59503;53.486;10.196;2023-08-20T09:12:47;102272.59;;;27.61;76.58
71666;BME280;59503;53.486;10.196;2023-08-20T09:15:12;102266.81;;;27.24;76.45
71666;BME280;59503;53.486;10.196;2023-08-20T09:17:41;102268.38;;;27.25;74.94
71666;BME280;59503;53.486;10.196;2023-08-20T09:20:06;102273.47;;;27.30;75.54
71666;BME280;59503;53.486;10.196;2023-08-20T09:22:35;102269.16;;;27.25;72.72
71666;BME280;59503;53.486;10.196;2023-08-20T09:25:01;102271.41;;;27.46;75.55
71666;BME280;59503;53.486;10.196;2023-08-20T09:27:27;102273.22;;;26.76;72.79
71666;BME280;59503;53.486;10.196;2023-08-20T09:29:55;102272.00;;;26.93;71.36
71666;BME280;59503;53.486;10.196;2023-08-20T09:32:22;102277.88;;;27.27;69.91
71666;BME280;59503;53.486;10.196;2023-08-20T09:34:53;102265.44;;;27.16;70.63
71666;BME280;59503;53.486;10.196;2023-08-20T09:37:20;102266.81;;;27.24;70.01
71666;BME280;59503;53.486;10.196;2023-08-20T09:39:47;102252.75;;;27.43;69.88
71666;BME280;59503;53.486;10.196;2023-08-20T09:42:13;102264.69;;;27.44;68.25
71666;BME280;59503;53.486;10.196;2023-08-20T09:44:40;102255.97;;;28.24;66.52
71666;BME280;59503;53.486;10.196;2023-08-20T09:47:14;102260.28;;;28.13;63.95
71666;BME280;59503;53.486;10.196;2023-08-20T09:49:42;102258.06;;;27.95;69.22
71666;BME280;59503;53.486;10.196;2023-08-20T09:52:09;102264.91;;;27.65;66.97
71666;BME280;59503;53.486;10.196;2023-08-20T09:55:00;102265.50;;;27.12;69.05
71666;BME280;59503;53.486;10.196;2023-08-20T09:57:39;102259.44;;;26.69;78.82
71666;BME280;59503;53.486;10.196;2023-08-20T10:00:07;102257.97;;;26.80;78.45
71666;BME280;59503;53.486;10.196;2023-08-20T10:02:37;102251.47;;;26.51;73.57
71666;BME280;59503;53.486;10.196;2023-08-20T10:05:04;102261.38;;;26.20;76.94
71666;BME280;59503;53.486;10.196;2023-08-20T10:07:30;102258.66;;;25.77;79.84
71666;BME280;59503;53.486;10.196;2023-08-20T10:10:02;102251.19;;;25.74;85.43
71666;BME280;59503;53.486;10.196;2023-08-20T10:12:28;102254.72;;;25.55;81.44
71666;BME280;59503;53.486;10.196;2023-08-20T10:14:58;102258.91;;;25.24;88.58
71666;BME280;59503;53.486;10.196;2023-08-20T10:17:24;102245.38;;;25.03;82.94
71666;BME280;59503;53.486;10.196;2023-08-20T10:19:52;102242.94;;;25.05;89.07
71666;BME280;59503;53.486;10.196;2023-08-20T10:22:18;102242.56;;;24.80;89.31
71666;BME280;59503;53.486;10.196;2023-08-20T10:24:52;102238.72;;;24.74;93.46
71666;BME280;59503;53.486;10.196;2023-08-20T10:27:30;102236.00;;;24.71;89.89
71666;BME280;59503;53.486;10.196;2023-08-20T10:29:58;102230.75;;;24.76;91.15
71666;BME280;59503;53.486;10.196;2023-08-20T10:32:46;102228.59;;;24.84;90.67
71666;BME280;59503;53.486;10.196;2023-08-20T10:35:14;102235.28;;;24.90;91.24
71666;BME280;59503;53.486;10.196;2023-08-20T10:38:12;102232.72;;;24.99;88.68
71666;BME280;59503;53.486;10.196;2023-08-20T10:40:58;102234.78;;;24.95;93.40
71666;BME280;59503;53.486;10.196;2023-08-20T10:46:05;102229.84;;;24.83;89.99
71666;BME280;59503;53.486;10.196;2023-08-20T10:48:32;102240.28;;;24.48;91.42
71666;BME280;59503;53.486;10.196;2023-08-20T10:51:06;102238.97;;;24.30;95.07
71666;BME280;59503;53.486;10.196;2023-08-20T10:53:31;102220.38;;;24.27;97.67
71666;BME280;59503;53.486;10.196;2023-08-20T10:56:07;102232.94;;;24.35;98.68
71666;BME280;59503;53.486;10.196;2023-08-20T10:58:33;102232.91;;;24.38;93.64
71666;BME280;59503;53.486;10.196;2023-08-20T11:01:14;102236.94;;;24.34;91.39
71666;BME280;59503;53.486;10.196;2023-08-20T11:03:42;102234.06;;;24.41;92.82
71666;BME280;59503;53.486;10.196;2023-08-20T11:06:08;102232.63;;;24.29;95.43
71666;BME280;59503;53.486;10.196;2023-08-20T11:08:33;102230.06;;;24.15;94.88
71666;BME280;59503;53.486;10.196;2023-08-20T11:10:59;102232.22;;;24.31;94.32
71666;BME280;59503;53.486;10.196;2023-08-20T11:13:25;102233.84;;;24.28;95.42
71666;BME280;59503;53.486;10.196;2023-08-20T11:15:51;102221.50;;;24.29;95.92
71666;BME280;59503;53.486;10.196;2023-08-20T11:18:16;102229.97;;;24.49;90.76
71666;BME280;59503;53.486;10.196;2023-08-20T11:20:42;102238.44;;;24.65;93.61
71666;BME280;59503;53.486;10.196;2023-08-20T11:23:08;102229.16;;;24.75;91.29
71666;BME280;59503;53.486;10.196;2023-08-20T11:25:34;102238.50;;;24.88;89.78
71666;BME280;59503;53.486;10.196;2023-08-20T11:27:59;102236.88;;;25.10;88.24
71666;BME280;59503;53.486;10.196;2023-08-20T11:30:29;102241.16;;;25.38;86.18
71666;BME280;59503;53.486;10.196;2023-08-20T11:32:54;102245.81;;;25.44;85.10
71666;BME280;59503;53.486;10.196;2023-08-20T11:35:20;102244.13;;;25.70;87.72
71666;BME280;59503;53.486;10.196;2023-08-20T11:37:46;102248.19;;;25.85;85.28
71666;BME280;59503;53.486;10.196;2023-08-20T11:40:12;102240.09;;;25.91;81.92
71666;BME280;59503;53.486;10.196;2023-08-20T11:42:37;102242.53;;;25.89;82.49
71666;BME280;59503;53.486;10.196;2023-08-20T11:45:03;102252.91;;;25.68;80.77
71666;BME280;59503;53.486;10.196;2023-08-20T11:47:28;102239.66;;;25.72;81.49
71666;BME280;59503;53.486;10.196;2023-08-20T11:50:04;102244.81;;;25.74;84.74
71666;BME280;59503;53.486;10.196;2023-08-20T11:52:33;102240.75;;;25.79;81.12
71666;BME280;59503;53.486;10.196;2023-08-20T11:55:00;102247.53;;;25.77;82.40
71666;BME280;59503;53.486;10.196;2023-08-20T11:57:28;102239.44;;;25.83;82.42
71666;BME280;59503;53.486;10.196;2023-08-20T11:59:54;102237.03;;;26.05;83.58
71666;BME280;59503;53.486;10.196;2023-08-20T12:02:26;102236.00;;;26.15;78.01
71666;BME280;59503;53.486;10.196;2023-08-20T12:04:55;102228.16;;;26.10;80.48
71666;BME280;59503;53.486;10.196;2023-08-20T12:07:25;102220.06;;;26.15;78.34
71666;BME280;59503;53.486;10.196;2023-08-20T12:09:53;102229.72;;;25.91;78.64
71666;BME280;59503;53.486;10.196;2023-08-20T12:12:19;102236.03;;;25.76;80.85
71666;BME280;59503;53.486;10.196;2023-08-20T12:14:45;102241.88;;;25.81;80.83
71666;BME280;59503;53.486;10.196;2023-08-20T12:17:11;102240.47;;;25.73;78.27
71666;BME280;59503;53.486;10.196;2023-08-20T12:19:36;102234.81;;;25.77;82.58
71666;BME280;59503;53.486;10.196;2023-08-20T12:22:02;102236.03;;;25.56;81.45
71666;BME280;59503;53.486;10.196;2023-08-20T12:24:27;102233.84;;;25.67;80.38
71666;BME280;59503;53.486;10.196;2023-08-20T12:26:53;102232.69;;;25.64;89.54
71666;BME280;59503;53.486;10.196;2023-08-20T12:29:18;102237.19;;;25.58;84.48
71666;BME280;59503;53.486;10.196;2023-08-20T12:31:43;102232.75;;;25.41;81.14
71666;BME280;59503;53.486;10.196;2023-08-20T12:34:09;102239.63;;;25.37;83.62
71666;BME280;59503;53.486;10.196;2023-08-20T12:36:34;102231.16;;;25.40;84.20
71666;BME280;59503;53.486;10.196;2023-08-20T12:39:00;102231.53;;;25.42;78.58
71666;BME280;59503;53.486;10.196;2023-08-20T12:41:25;102219.47;;;25.49;81.26